Time;durP1;ratioP1;P1;durP2;ratioP2;P2;SDS_P1;SDS_P2;PMS_P1;PMS_P2;Temp;Humidity;BMP_temperature;BMP_pressure;BME280_temperature;BME280_humidity;BME280_pressure;Samples;Min_cycle;Max_cycle;Signal;HPM_P1;HPM_P2
2023/06/15 00:00:57;;;;;;;4.55;2.70;;;17.30;90.10;;;;;;5093920;28;20200;-62
2023/06/15 00:03:25;;;;;;;5.93;3.38;;;17.30;90.10;;;;;;5093564;28;20277;-61
2023/06/15 00:05:52;;;;;;;3.53;3.05;;;17.30;90.00;;;;;;5093357;28;20333;-61
2023/06/15 00:08:18;;;;;;;4.53;2.85;;;17.40;90.00;;;;;;5093907;28;20204;-61
2023/06/15 00:10:46;;;;;;;4.07;3.10;;;17.40;90.10;;;;;;5093834;28;20299;-61
2023/06/15 00:13:13;;;;;;;3.67;2.72;;;17.40;90.00;;;;;;5093366;28;20220;-60
2023/06/15 00:15:40;;;;;;;3.00;2.55;;;17.40;90.10;;;;;;5092290;28;20200;-61
2023/06/15 00:18:07;;;;;;;3.40;3.10;;;17.30;90.00;;;;;;5093574;28;20204;-62
2023/06/15 00:20:34;;;;;;;3.80;2.80;;;17.30;89.90;;;;;;5093788;28;20204;-62
2023/06/15 00:23:01;;;;;;;3.40;2.88;;;17.30;90.10;;;;;;5093270;28;20322;-61
2023/06/15 00:25:28;;;;;;;3.15;2.80;;;17.20;90.00;;;;;;5093432;28;20204;-62
2023/06/15 00:27:56;;;;;;;5.80;2.80;;;17.20;90.10;;;;;;5092875;28;20247;-62
2023/06/15 00:30:23;;;;;;;3.50;3.00;;;17.10;90.10;;;;;;5093195;28;20257;-62
2023/06/15 00:32:49;;;;;;;5.72;2.70;;;17.10;90.20;;;;;;5093187;28;20228;-61
2023/06/15 00:35:16;;;;;;;4.15;2.88;;;17.00;90.20;;;;;;5093185;28;20208;-61
2023/06/15 00:37:43;;;;;;;4.35;3.00;;;17.00;90.30;;;;;;5092785;28;20208;-61
2023/06/15 00:40:10;;;;;;;3.70;2.78;;;17.00;90.40;;;;;;5093469;28;20607;-62
2023/06/15 00:42:37;;;;;;;3.25;2.67;;;17.00;90.40;;;;;;5092684;28;20232;-62
2023/06/15 00:45:07;;;;;;;3.83;2.70;;;17.00;90.30;;;;;;5092822;28;20704;-61
2023/06/15 00:47:38;;;;;;;8.13;3.13;;;17.00;90.30;;;;;;5092319;28;20852;-62
2023/06/15 00:50:09;;;;;;;5.60;2.92;;;17.00;90.60;;;;;;5093043;28;20204;-61
2023/06/15 00:52:37;;;;;;;3.25;2.92;;;17.00;90.30;;;;;;5092638;28;20307;-62
2023/06/15 00:55:04;;;;;;;4.38;2.75;;;17.00;90.30;;;;;;5092941;28;20274;-62
2023/06/15 00:57:32;;;;;;;3.05;2.78;;;17.00;90.30;;;;;;5092475;28;20204;-62
2023/06/15 00:59:59;;;;;;;5.20;2.70;;;17.00;90.40;;;;;;5092212;28;20661;-62
2023/06/15 01:02:29;;;;;;;4.90;2.70;;;17.00;90.50;;;;;;5092690;28;20288;-61
2023/06/15 01:04:56;;;;;;;3.60;2.65;;;17.00;90.60;;;;;;5092457;28;20305;-62
2023/06/15 01:07:27;;;;;;;7.28;2.90;;;17.00;90.50;;;;;;5092313;28;20261;-62
2023/06/15 01:09:55;;;;;;;3.30;2.92;;;17.00;90.50;;;;;;5092256;28;20213;-62
2023/06/15 01:12:22;;;;;;;2.85;2.63;;;17.10;90.30;;;;;;5092280;28;20228;-62
2023/06/15 01:14:49;;;;;;;4.18;2.70;;;17.10;90.10;;;;;;5092098;28;20200;-60
2023/06/15 01:17:23;;;;;;;3.72;3.03;;;17.10;89.90;;;;;;5092100;28;20211;-61
2023/06/15 01:19:57;;;;;;;3.53;2.80;;;17.20;89.80;;;;;;5092309;28;20299;-61
2023/06/15 01:22:35;;;;;;;5.75;3.00;;;17.30;89.90;;;;;;5111159;22;20240;-62
2023/06/15 01:25:10;;;;;;;4.30;2.75;;;17.30;89.60;;;;;;5063721;28;20231;-62
2023/06/15 01:27:41;;;;;;;3.15;2.80;;;17.30;89.20;;;;;;5071533;28;20691;-62
2023/06/15 01:30:10;;;;;;;5.40;2.72;;;17.40;89.10;;;;;;5071970;28;20205;-62
2023/06/15 01:32:38;;;;;;;4.15;2.70;;;17.40;89.30;;;;;;5071982;28;20576;-63
2023/06/15 01:35:05;;;;;;;3.63;2.80;;;17.30;89.20;;;;;;5071836;28;20359;-63
2023/06/15 01:37:32;;;;;;;4.18;3.08;;;17.40;89.40;;;;;;5071979;28;20216;-62
2023/06/15 01:39:58;;;;;;;4.63;2.92;;;17.30;89.80;;;;;;5071796;28;20209;-62
2023/06/15 01:42:25;;;;;;;5.38;2.63;;;17.20;90.10;;;;;;5071530;28;20229;-60
2023/06/15 01:44:55;;;;;;;4.75;2.90;;;17.10;90.20;;;;;;5071695;28;20229;-60
2023/06/15 01:47:22;;;;;;;3.03;2.72;;;17.10;90.30;;;;;;5071533;28;20243;-60
2023/06/15 01:49:49;;;;;;;3.55;2.60;;;17.00;90.60;;;;;;5071706;28;20304;-60
2023/06/15 01:52:16;;;;;;;2.72;2.50;;;16.90;90.90;;;;;;5071996;28;20208;-62
2023/06/15 01:54:43;;;;;;;3.83;2.58;;;16.90;91.00;;;;;;5071702;28;20258;-60
2023/06/15 01:57:10;;;;;;;3.80;2.83;;;16.90;91.20;;;;;;5071617;28;20266;-60
2023/06/15 01:59:37;;;;;;;3.78;2.92;;;16.90;91.50;;;;;;5071460;28;20209;-61
2023/06/15 02:02:05;;;;;;;4.57;2.90;;;16.90;91.60;;;;;;5071493;28;20213;-61
2023/06/15 02:04:32;;;;;;;3.25;2.83;;;16.90;91.40;;;;;;5071316;28;20228;-60
2023/06/15 02:06:59;;;;;;;5.05;2.88;;;16.90;91.30;;;;;;5071464;28;20205;-60
2023/06/15 02:09:26;;;;;;;3.05;2.75;;;17.00;91.10;;;;;;5071470;28;20211;-61
2023/06/15 02:11:53;;;;;;;4.93;3.20;;;17.00;90.90;;;;;;5071772;28;20213;-62
2023/06/15 02:14:20;;;;;;;6.13;3.03;;;17.00;91.20;;;;;;5071681;28;20282;-62
2023/06/15 02:16:48;;;;;;;6.85;3.30;;;17.00;92.50;;;;;;5071331;28;20208;-62
2023/06/15 02:19:20;;;;;;;4.45;3.72;;;17.00;92.70;;;;;;5071348;28;20213;-60
2023/06/15 02:21:47;;;;;;;4.20;3.00;;;17.00;92.80;;;;;;5071446;28;20231;-61
2023/06/15 02:24:15;;;;;;;5.93;3.40;;;17.00;92.90;;;;;;5071002;28;20232;-61
2023/06/15 02:26:41;;;;;;;5.63;3.20;;;16.90;93.00;;;;;;5071262;28;20296;-61
2023/06/15 02:29:08;;;;;;;4.72;2.92;;;16.90;93.00;;;;;;5071203;28;20204;-61
2023/06/15 02:31:36;;;;;;;4.03;3.20;;;16.90;93.00;;;;;;5071245;28;20246;-61
2023/06/15 02:34:02;;;;;;;3.55;3.22;;;16.90;93.40;;;;;;5071445;28;20229;-62
2023/06/15 02:36:30;;;;;;;4.53;3.00;;;16.80;93.20;;;;;;5071149;28;20260;-62
2023/06/15 02:38:57;;;;;;;3.28;2.97;;;16.80;93.40;;;;;;5071824;28;20211;-62
2023/06/15 02:41:24;;;;;;;5.97;3.00;;;16.70;93.40;;;;;;5075533;28;20282;-60
2023/06/15 02:43:52;;;;;;;3.70;2.92;;;16.70;93.50;;;;;;5074926;28;20227;-62
2023/06/15 02:46:18;;;;;;;4.28;3.28;;;16.70;93.50;;;;;;5074817;28;20307;-61
2023/06/15 02:48:45;;;;;;;4.35;2.75;;;16.60;93.40;;;;;;5075262;28;20258;-62
2023/06/15 02:51:12;;;;;;;3.65;2.75;;;16.60;93.50;;;;;;5075461;28;20228;-61
2023/06/15 02:53:40;;;;;;;4.43;3.05;;;16.50;93.50;;;;;;5074840;28;20308;-61
2023/06/15 02:56:07;;;;;;;4.72;3.00;;;16.50;93.40;;;;;;5075247;28;20208;-61
2023/06/15 02:58:34;;;;;;;8.40;4.10;;;16.50;93.60;;;;;;5075260;28;20254;-61
2023/06/15 03:01:02;;;;;;;6.75;3.72;;;16.40;94.20;;;;;;5074939;28;20360;-61
2023/06/15 03:03:29;;;;;;;4.88;3.45;;;16.40;94.90;;;;;;5075215;28;20281;-61
2023/06/15 03:05:56;;;;;;;8.60;4.30;;;16.30;95.40;;;;;;5074549;28;20240;-60
2023/06/15 03:08:24;;;;;;;10.68;5.10;;;16.20;96.30;;;;;;5074825;28;20205;-61
2023/06/15 03:10:52;;;;;;;13.05;9.07;;;16.10;96.30;;;;;;5074601;28;20262;-61
2023/06/15 03:13:19;;;;;;;8.93;6.22;;;16.10;96.40;;;;;;5074548;28;20311;-61
2023/06/15 03:15:48;;;;;;;12.95;5.22;;;16.10;96.60;;;;;;5074468;28;20207;-60
2023/06/15 03:18:15;;;;;;;4.43;3.20;;;16.00;96.70;;;;;;5074548;28;20692;-61
2023/06/15 03:20:43;;;;;;;5.33;4.00;;;16.00;96.80;;;;;;5074457;28;20200;-61
2023/06/15 03:23:10;;;;;;;6.22;4.22;;;16.00;97.00;;;;;;5074449;28;20515;-61
2023/06/15 03:25:37;;;;;;;7.47;4.80;;;16.00;97.20;;;;;;5074188;28;20236;-60
2023/06/15 03:28:05;;;;;;;4.40;3.85;;;15.90;97.60;;;;;;5074141;28;20239;-63
2023/06/15 03:30:32;;;;;;;14.60;10.37;;;15.90;98.20;;;;;;5074483;28;20205;-62
2023/06/15 03:32:59;;;;;;;4.90;4.20;;;15.90;98.00;;;;;;5074250;28;20235;-60
2023/06/15 03:35:26;;;;;;;4.57;3.47;;;15.90;98.10;;;;;;5074597;28;20278;-60
2023/06/15 03:37:53;;;;;;;4.70;3.33;;;15.90;98.20;;;;;;5073907;28;20613;-63
2023/06/15 03:40:20;;;;;;;3.80;3.40;;;15.90;98.20;;;;;;5074003;28;20209;-60
2023/06/15 03:42:47;;;;;;;9.23;3.07;;;15.90;98.30;;;;;;5073970;28;20741;-60
2023/06/15 03:45:15;;;;;;;10.33;7.57;;;15.90;98.40;;;;;;5074123;28;20585;-61
2023/06/15 03:47:42;;;;;;;3.70;3.30;;;15.90;98.40;;;;;;5073777;28;20304;-63
2023/06/15 03:50:11;;;;;;;5.10;3.77;;;15.90;98.50;;;;;;5073678;28;20270;-61
2023/06/15 03:52:38;;;;;;;4.17;3.10;;;15.90;98.50;;;;;;5073855;28;20722;-61
2023/06/15 03:55:06;;;;;;;4.73;3.37;;;15.80;98.80;;;;;;5073715;28;20201;-63
2023/06/15 03:57:33;;;;;;;3.83;3.30;;;15.70;99.10;;;;;;5074074;28;20205;-62
2023/06/15 04:00:00;;;;;;;6.33;3.50;;;15.60;99.50;;;;;;5073815;28;20586;-62
2023/06/15 04:02:28;;;;;;;3.57;3.27;;;15.50;99.90;;;;;;5073789;28;20225;-61
2023/06/15 04:04:56;;;;;;;3.93;3.50;;;15.50;99.90;;;;;;5073625;28;20320;-61
2023/06/15 04:07:23;;;;;;;8.43;3.40;;;15.50;99.90;;;;;;5073347;28;20211;-61
2023/06/15 04:09:50;;;;;;;4.07;3.13;;;15.50;99.90;;;;;;5073558;28;20209;-61
2023/06/15 04:12:17;;;;;;;4.67;3.47;;;15.60;99.90;;;;;;5073505;28;20690;-61
2023/06/15 04:14:44;;;;;;;4.83;3.93;;;15.60;99.90;;;;;;5073694;28;20639;-61
2023/06/15 04:17:10;;;;;;;4.47;4.05;;;15.60;99.90;;;;;;5073192;28;20647;-61
2023/06/15 04:19:39;;;;;;;7.37;3.43;;;15.50;99.90;;;;;;5073337;28;20216;-61
2023/06/15 04:22:06;;;;;;;5.47;3.90;;;15.60;99.90;;;;;;5072981;28;20208;-61
2023/06/15 04:24:33;;;;;;;5.80;3.43;;;15.70;99.90;;;;;;5073451;28;20225;-61
2023/06/15 04:27:00;;;;;;;6.57;3.40;;;15.80;99.90;;;;;;5073317;28;20227;-61
2023/06/15 04:29:30;;;;;;;6.20;3.30;;;15.80;99.90;;;;;;5073281;28;20226;-61
2023/06/15 04:31:57;;;;;;;6.20;3.60;;;15.80;99.90;;;;;;5073095;28;20208;-62
2023/06/15 04:34:24;;;;;;;5.27;3.70;;;15.80;99.90;;;;;;5072874;28;20604;-60
2023/06/15 04:36:52;;;;;;;8.63;3.87;;;15.80;99.90;;;;;;5072882;28;20212;-61
2023/06/15 04:39:23;;;;;;;3.90;3.30;;;15.90;99.90;;;;;;5072985;28;20209;-61
2023/06/15 04:41:50;;;;;;;5.60;3.83;;;16.00;99.90;;;;;;5072979;28;20618;-60
2023/06/15 04:44:17;;;;;;;4.85;3.38;;;16.10;99.90;;;;;;5072795;28;20293;-61
2023/06/15 04:46:44;;;;;;;4.03;3.45;;;16.60;99.90;;;;;;5072441;28;20671;-61
2023/06/15 04:49:12;;;;;;;3.83;3.25;;;17.70;99.40;;;;;;5072510;28;20266;-61
2023/06/15 04:51:39;;;;;;;4.25;3.20;;;19.30;95.40;;;;;;5072849;28;20211;-60
2023/06/15 04:54:07;;;;;;;4.85;3.17;;;21.00;91.50;;;;;;5072885;28;20227;-61
2023/06/15 04:56:34;;;;;;;3.78;3.20;;;22.40;85.80;;;;;;5072611;28;20356;-61
2023/06/15 04:59:00;;;;;;;5.07;3.10;;;23.50;79.80;;;;;;5072666;28;20583;-61
2023/06/15 05:01:27;;;;;;;6.18;3.10;;;24.30;76.80;;;;;;5072139;28;20316;-61
2023/06/15 05:03:54;;;;;;;3.80;3.00;;;25.10;72.60;;;;;;5072018;28;20235;-62
2023/06/15 05:06:21;;;;;;;3.33;2.65;;;26.00;69.50;;;;;;5072260;28;20256;-61
2023/06/15 05:08:48;;;;;;;3.15;2.70;;;26.90;66.30;;;;;;5072525;28;20294;-62
2023/06/15 05:11:16;;;;;;;4.25;3.20;;;27.70;63.10;;;;;;5072719;28;20266;-61
2023/06/15 05:13:43;;;;;;;5.55;3.25;;;28.30;61.30;;;;;;5072333;28;20224;-61
2023/06/15 05:16:10;;;;;;;4.65;3.15;;;28.90;59.00;;;;;;5072112;28;20649;-60
2023/06/15 05:18:37;;;;;;;3.78;2.70;;;29.30;57.90;;;;;;5072388;28;20208;-61
2023/06/15 05:21:04;;;;;;;3.15;2.85;;;29.80;56.30;;;;;;5072652;28;20209;-60
2023/06/15 05:23:31;;;;;;;3.33;3.00;;;30.30;55.00;;;;;;5072368;28;20232;-60
2023/06/15 05:25:59;;;;;;;4.43;3.17;;;30.90;54.00;;;;;;5072009;28;20709;-60
2023/06/15 05:28:27;;;;;;;3.90;2.60;;;31.40;52.80;;;;;;5072231;28;20363;-60
2023/06/15 05:30:54;;;;;;;5.07;2.80;;;31.90;51.10;;;;;;5072342;28;20231;-58
2023/06/15 05:33:21;;;;;;;4.30;2.95;;;32.40;50.40;;;;;;5072373;28;20229;-61
2023/06/15 05:35:47;;;;;;;4.45;2.85;;;33.10;49.20;;;;;;5072156;28;20208;-59
2023/06/15 05:38:14;;;;;;;5.10;2.80;;;33.60;48.40;;;;;;5072208;28;20208;-61
2023/06/15 05:40:41;;;;;;;4.45;2.95;;;34.00;47.30;;;;;;5072411;28;20228;-60
2023/06/15 05:43:08;;;;;;;4.63;3.15;;;34.40;46.80;;;;;;5071940;28;20237;-62
2023/06/15 05:45:36;;;;;;;8.85;3.70;;;34.60;46.60;;;;;;5071552;28;20220;-60
2023/06/15 05:48:02;;;;;;;7.03;3.00;;;35.00;46.50;;;;;;5071504;28;20205;-60
2023/06/15 05:50:30;;;;;;;5.75;3.00;;;35.50;44.60;;;;;;5071669;28;20226;-61
2023/06/15 05:52:56;;;;;;;4.60;3.35;;;35.60;44.40;;;;;;5071640;28;20220;-61
2023/06/15 05:55:24;;;;;;;6.18;2.85;;;35.60;44.40;;;;;;5071770;28;20201;-61
2023/06/15 05:57:50;;;;;;;4.53;3.03;;;35.70;44.10;;;;;;5071116;28;20205;-60
2023/06/15 06:00:18;;;;;;;4.70;3.10;;;35.80;44.10;;;;;;5071130;28;20591;-61
2023/06/15 06:02:46;;;;;;;3.28;2.78;;;35.70;44.00;;;;;;5071464;28;20236;-60
2023/06/15 06:05:13;;;;;;;5.45;3.00;;;35.60;44.40;;;;;;5071448;28;20221;-61
2023/06/15 06:07:39;;;;;;;5.63;2.97;;;36.20;43.50;;;;;;5071175;28;20216;-61
2023/06/15 06:10:08;;;;;;;4.22;2.85;;;36.90;42.50;;;;;;5071310;28;20209;-60
2023/06/15 06:12:35;;;;;;;3.38;2.78;;;37.30;41.90;;;;;;5071298;28;20224;-60
2023/06/15 06:15:01;;;;;;;3.72;3.03;;;36.70;42.30;;;;;;5071463;28;20215;-61
2023/06/15 06:17:28;;;;;;;5.22;2.55;;;36.70;42.70;;;;;;5071262;28;20215;-60
2023/06/15 06:19:57;;;;;;;4.80;2.83;;;37.00;41.60;;;;;;5071440;28;20205;-60
2023/06/15 06:22:24;;;;;;;7.00;2.90;;;37.30;41.60;;;;;;5071268;28;20225;-60
2023/06/15 06:24:51;;;;;;;4.07;3.13;;;37.20;41.50;;;;;;5071102;28;20205;-59
2023/06/15 06:27:17;;;;;;;4.97;2.97;;;37.70;41.80;;;;;;5071022;28;20295;-60
2023/06/15 06:29:44;;;;;;;4.35;2.60;;;38.10;40.60;;;;;;5071513;28;20211;-60
2023/06/15 06:32:11;;;;;;;3.55;2.80;;;38.40;40.10;;;;;;5071116;28;20666;-60
2023/06/15 06:34:38;;;;;;;6.05;2.90;;;39.00;39.40;;;;;;5071101;28;20216;-60
2023/06/15 06:37:06;;;;;;;5.30;2.90;;;39.60;38.60;;;;;;5071087;28;20240;-61
2023/06/15 06:39:33;;;;;;;5.30;2.88;;;39.60;38.60;;;;;;5070970;28;20682;-60
2023/06/15 06:42:00;;;;;;;5.13;2.97;;;39.70;38.50;;;;;;5071185;28;20219;-62
2023/06/15 06:44:27;;;;;;;3.90;2.80;;;40.10;37.80;;;;;;5071344;28;20295;-60
2023/06/15 06:46:56;;;;;;;4.18;3.00;;;40.40;37.20;;;;;;5070854;28;20320;-60
2023/06/15 06:49:22;;;;;;;4.53;2.50;;;40.50;37.50;;;;;;5070936;28;20211;-60
2023/06/15 06:51:49;;;;;;;4.20;2.60;;;41.00;36.80;;;;;;5071031;28;20727;-60
2023/06/15 06:54:17;;;;;;;2.50;2.30;;;41.40;36.00;;;;;;5070559;28;20645;-61
2023/06/15 06:56:45;;;;;;;4.00;2.95;;;41.50;35.90;;;;;;5070826;28;20207;-60
2023/06/15 06:59:11;;;;;;;3.90;2.63;;;41.40;35.80;;;;;;5070983;28;20204;-61
2023/06/15 07:01:38;;;;;;;5.72;2.63;;;40.20;37.00;;;;;;5071025;28;20212;-60
2023/06/15 07:04:05;;;;;;;5.60;2.70;;;39.10;38.90;;;;;;5070845;28;20227;-62
2023/06/15 07:06:33;;;;;;;3.38;2.67;;;39.20;38.30;;;;;;5070566;28;20232;-60
2023/06/15 07:09:00;;;;;;;3.63;2.50;;;39.90;37.60;;;;;;5070793;28;20201;-61
2023/06/15 07:11:28;;;;;;;6.25;2.67;;;40.80;36.80;;;;;;5070886;28;20208;-61
2023/06/15 07:13:55;;;;;;;4.32;2.70;;;41.50;36.00;;;;;;5070500;28;20327;-61
2023/06/15 07:16:21;;;;;;;5.45;2.50;;;42.10;35.50;;;;;;5070255;28;20223;-61
2023/06/15 07:18:48;;;;;;;3.97;2.90;;;42.50;34.70;;;;;;5070601;28;20215;-61
2023/06/15 07:21:15;;;;;;;2.53;2.25;;;42.80;34.70;;;;;;5070461;28;20237;-61
2023/06/15 07:23:41;;;;;;;3.58;2.75;;;42.90;34.90;;;;;;5071052;28;20232;-61
2023/06/15 07:26:10;;;;;;;3.20;2.70;;;43.10;34.20;;;;;;5072696;28;20228;-62
2023/06/15 07:28:38;;;;;;;3.38;2.80;;;43.10;33.60;;;;;;5074772;28;20201;-61
2023/06/15 07:31:04;;;;;;;6.60;2.70;;;42.90;34.30;;;;;;5074287;28;20274;-62
2023/06/15 07:33:31;;;;;;;2.60;2.40;;;42.80;34.30;;;;;;5074079;28;20228;-61
2023/06/15 07:35:58;;;;;;;7.47;2.85;;;42.90;34.10;;;;;;5073545;28;20211;-62
2023/06/15 07:38:25;;;;;;;3.55;2.50;;;43.20;33.90;;;;;;5074099;28;20216;-62
2023/06/15 07:40:52;;;;;;;2.92;2.25;;;43.60;33.50;;;;;;5074240;28;20661;-62
2023/06/15 07:43:20;;;;;;;4.25;2.88;;;44.20;33.30;;;;;;5074083;28;20640;-62
2023/06/15 07:45:48;;;;;;;3.60;2.40;;;44.70;32.40;;;;;;5073537;28;20227;-61
2023/06/15 07:48:15;;;;;;;4.53;2.35;;;44.50;32.20;;;;;;5073780;28;20680;-61
2023/06/15 07:50:41;;;;;;;6.88;2.63;;;44.10;32.40;;;;;;5074048;28;20275;-62
2023/06/15 07:53:08;;;;;;;3.10;2.80;;;43.50;32.90;;;;;;5074120;28;20277;-62
2023/06/15 07:55:35;;;;;;;3.83;2.70;;;43.00;33.20;;;;;;5074110;28;20200;-61
2023/06/15 07:58:01;;;;;;;3.85;2.65;;;42.30;33.70;;;;;;5073521;28;20219;-61
2023/06/15 08:00:28;;;;;;;6.00;2.60;;;41.30;34.50;;;;;;5073989;28;20212;-61
2023/06/15 08:02:56;;;;;;;3.05;2.40;;;39.60;36.60;;;;;;5073470;28;20258;-60
2023/06/15 08:05:23;;;;;;;4.35;2.85;;;38.40;37.20;;;;;;5073931;28;20207;-59
2023/06/15 08:07:49;;;;;;;3.35;2.75;;;38.10;38.10;;;;;;5073767;28;20208;-61
2023/06/15 08:10:17;;;;;;;2.95;2.33;;;39.40;36.60;;;;;;5073889;28;20212;-61
2023/06/15 08:12:44;;;;;;;3.72;3.20;;;40.50;35.60;;;;;;5073735;28;20220;-61
2023/06/15 08:15:11;;;;;;;3.67;2.45;;;40.20;35.90;;;;;;5073582;28;20261;-61
2023/06/15 08:17:38;;;;;;;4.13;2.75;;;39.40;36.60;;;;;;5073504;28;20214;-61
2023/06/15 08:20:09;;;;;;;6.60;3.05;;;39.60;36.70;;;;;;5073868;28;20211;-61
2023/06/15 08:22:36;;;;;;;3.70;2.70;;;40.30;35.90;;;;;;5073740;28;20275;-61
2023/06/15 08:25:03;;;;;;;4.45;3.03;;;40.70;35.30;;;;;;5073660;28;20207;-61
2023/06/15 08:27:29;;;;;;;2.72;2.53;;;40.70;35.20;;;;;;5073301;28;20224;-60
2023/06/15 08:29:57;;;;;;;4.63;2.70;;;40.60;35.20;;;;;;5073254;28;20200;-61
2023/06/15 08:32:23;;;;;;;3.85;2.80;;;40.20;35.60;;;;;;5073391;28;20224;-62
2023/06/15 08:34:51;;;;;;;4.05;2.40;;;40.10;35.90;;;;;;5073371;28;20261;-61
2023/06/15 08:37:19;;;;;;;3.72;2.70;;;40.10;36.00;;;;;;5071971;28;20205;-61
2023/06/15 08:39:46;;;;;;;2.70;2.50;;;40.50;35.00;;;;;;5073086;28;20215;-61
2023/06/15 08:42:13;;;;;;;4.95;2.80;;;40.90;34.70;;;;;;5073068;28;20204;-62
2023/06/15 08:44:42;;;;;;;4.80;2.60;;;40.70;34.70;;;;;;5073032;28;20209;-61
2023/06/15 08:47:09;;;;;;;2.63;2.42;;;39.10;36.30;;;;;;5066070;28;20225;-63
2023/06/15 08:49:37;;;;;;;5.28;2.95;;;37.90;37.60;;;;;;5051882;28;20618;-58
2023/06/15 08:52:05;;;;;;;4.22;2.80;;;36.30;39.80;;;;;;5046356;28;20213;-59
2023/06/15 08:54:35;;;;;;;4.40;2.65;;;35.30;40.40;;;;;;5052668;28;20241;-62
2023/06/15 08:57:03;;;;;;;6.15;2.67;;;33.80;41.90;;;;;;5053037;28;20198;-61
2023/06/15 08:59:30;;;;;;;4.80;3.28;;;32.20;43.50;;;;;;5052546;28;20209;-61
2023/06/15 09:01:58;;;;;;;3.95;2.72;;;30.80;45.30;;;;;;5067365;28;20248;-60
2023/06/15 09:04:26;;;;;;;3.60;2.75;;;29.80;46.90;;;;;;5072452;28;20224;-61
2023/06/15 09:06:57;;;;;;;4.05;2.70;;;29.30;47.90;;;;;;5057865;28;20230;-61
2023/06/15 09:09:23;;;;;;;5.75;2.80;;;29.00;49.10;;;;;;5052221;28;20209;-62
2023/06/15 09:11:51;;;;;;;5.00;2.88;;;28.50;48.80;;;;;;5051370;28;20205;-63
2023/06/15 09:14:19;;;;;;;5.53;3.17;;;28.20;49.90;;;;;;5051660;28;20233;-60
2023/06/15 09:16:46;;;;;;;2.67;2.40;;;27.80;49.80;;;;;;5050586;28;20232;-61
2023/06/15 09:19:16;;;;;;;5.85;2.90;;;27.60;50.10;;;;;;5052478;28;20206;-61
2023/06/15 09:21:49;;;;;;;3.28;2.60;;;27.40;50.10;;;;;;5051991;28;20209;-60
2023/06/15 09:24:18;;;;;;;2.60;2.40;;;27.20;50.20;;;;;;5051313;28;20324;-60
2023/06/15 09:26:46;;;;;;;4.97;2.53;;;27.00;49.90;;;;;;5049992;28;20580;-60
2023/06/15 09:29:14;;;;;;;5.70;2.50;;;26.90;49.60;;;;;;5051724;28;20232;-61
2023/06/15 09:31:41;;;;;;;5.05;2.60;;;26.70;49.50;;;;;;5052045;28;20206;-62
2023/06/15 09:34:09;;;;;;;3.47;2.60;;;26.40;49.80;;;;;;5051962;28;20222;-61
2023/06/15 09:36:39;;;;;;;3.58;2.42;;;26.30;50.70;;;;;;5051493;28;20232;-63
2023/06/15 09:39:09;;;;;;;3.13;2.67;;;26.50;49.70;;;;;;5051961;28;20301;-62
2023/06/15 09:41:36;;;;;;;6.07;2.60;;;26.70;49.50;;;;;;5051768;28;20288;-60
2023/06/15 09:44:05;;;;;;;3.28;2.42;;;26.90;50.20;;;;;;5051690;28;20229;-60
2023/06/15 09:46:33;;;;;;;4.20;2.38;;;27.10;49.80;;;;;;5051498;28;20308;-63
2023/06/15 09:49:00;;;;;;;3.65;2.80;;;27.10;48.70;;;;;;5051164;28;20212;-59
2023/06/15 09:51:28;;;;;;;3.38;2.53;;;27.00;47.90;;;;;;5051464;28;20237;-59
2023/06/15 09:53:57;;;;;;;3.83;2.47;;;26.90;48.80;;;;;;5051680;28;20275;-59
2023/06/15 09:56:25;;;;;;;2.80;2.50;;;26.80;48.30;;;;;;5051707;28;20225;-59
2023/06/15 09:58:52;;;;;;;2.67;2.47;;;26.80;48.50;;;;;;5052201;28;20659;-59
2023/06/15 10:01:19;;;;;;;6.65;2.63;;;26.80;48.30;;;;;;5051430;28;20205;-59
2023/06/15 10:03:53;;;;;;;4.75;2.50;;;27.00;48.50;;;;;;5051273;28;20257;-58
2023/06/15 10:06:22;;;;;;;4.22;2.67;;;27.10;47.50;;;;;;5051435;28;20315;-59
2023/06/15 10:08:54;;;;;;;5.45;2.70;;;27.40;47.50;;;;;;5051597;28;20241;-59
2023/06/15 10:11:21;;;;;;;3.70;2.58;;;27.50;47.90;;;;;;5050623;28;20228;-62
2023/06/15 10:13:52;;;;;;;3.00;2.35;;;27.60;47.70;;;;;;5050220;28;20699;-62
2023/06/15 10:16:21;;;;;;;3.13;2.58;;;27.50;48.20;;;;;;5050808;28;20695;-60
2023/06/15 10:18:57;;;;;;;6.03;2.78;;;27.50;48.20;;;;;;5049291;28;20217;-62
2023/06/15 10:21:28;;;;;;;2.47;2.28;;;27.50;48.20;;;;;;5051190;28;20211;-59
2023/06/15 10:23:56;;;;;;;4.20;2.80;;;27.70;48.20;;;;;;5050722;28;20594;-59
2023/06/15 10:26:23;;;;;;;4.60;2.38;;;28.10;47.00;;;;;;5050886;28;20271;-59
2023/06/15 10:28:56;;;;;;;5.50;2.63;;;28.20;47.70;;;;;;5050819;28;20209;-59
2023/06/15 10:31:28;;;;;;;3.95;2.58;;;28.10;47.00;;;;;;5051135;28;20209;-59
2023/06/15 10:34:04;;;;;;;2.97;2.35;;;27.90;48.00;;;;;;5049409;28;20221;-60
2023/06/15 10:36:37;;;;;;;5.10;2.60;;;27.60;47.70;;;;;;5050656;28;20427;-61
2023/06/15 10:39:10;;;;;;;3.28;2.85;;;27.10;48.00;;;;;;5050963;28;20215;-61
2023/06/15 10:41:37;;;;;;;5.28;2.33;;;26.90;48.20;;;;;;5051261;28;20815;-61
2023/06/15 10:44:06;;;;;;;4.32;2.45;;;26.80;48.80;;;;;;5050638;28;20291;-61
2023/06/15 10:46:35;;;;;;;3.33;2.58;;;26.60;48.40;;;;;;5050729;28;20313;-61
2023/06/15 10:49:05;;;;;;;3.38;3.00;;;26.30;48.90;;;;;;5050538;28;20619;-61
2023/06/15 10:51:34;;;;;;;3.83;2.80;;;26.20;49.40;;;;;;5050823;28;20205;-59
2023/06/15 10:54:03;;;;;;;3.65;2.47;;;26.20;49.60;;;;;;5050349;28;20229;-61
2023/06/15 10:56:29;;;;;;;5.88;2.88;;;26.40;49.00;;;;;;5050453;28;20326;-61
2023/06/15 10:58:58;;;;;;;6.22;2.65;;;26.40;49.50;;;;;;5051079;28;20209;-61
2023/06/15 11:01:26;;;;;;;4.13;2.47;;;26.40;49.40;;;;;;5053170;28;20616;-61
2023/06/15 11:03:53;;;;;;;2.67;2.40;;;26.50;49.10;;;;;;5054767;28;20229;-61
2023/06/15 11:06:30;;;;;;;2.95;2.38;;;26.60;48.40;;;;;;5054697;28;20241;-60
2023/06/15 11:09:03;;;;;;;3.58;2.90;;;26.80;48.00;;;;;;5054786;28;20671;-61
2023/06/15 11:11:32;;;;;;;4.93;2.38;;;27.00;48.10;;;;;;5054515;28;20205;-61
2023/06/15 11:14:02;;;;;;;3.65;2.40;;;27.20;46.70;;;;;;5053796;28;20591;-61
2023/06/15 11:16:31;;;;;;;2.72;2.20;;;27.20;46.50;;;;;;5054374;28;20204;-61
2023/06/15 11:19:00;;;;;;;3.50;2.70;;;27.40;46.50;;;;;;5054406;28;20291;-62
2023/06/15 11:21:30;;;;;;;3.85;2.85;;;27.80;46.50;;;;;;5054488;28;20216;-60
2023/06/15 11:23:57;;;;;;;3.05;2.58;;;28.10;47.00;;;;;;5054057;28;20806;-59
2023/06/15 11:26:28;;;;;;;2.72;2.30;;;28.30;47.90;;;;;;5053529;28;20816;-60
2023/06/15 11:28:57;;;;;;;4.78;2.40;;;28.60;47.10;;;;;;5054320;28;20245;-60
2023/06/15 11:31:24;;;;;;;3.38;2.67;;;28.70;47.30;;;;;;5054634;28;20229;-60
2023/06/15 11:33:51;;;;;;;2.80;2.60;;;28.80;47.10;;;;;;5054159;28;20229;-59
2023/06/15 11:36:18;;;;;;;3.67;2.50;;;28.70;47.00;;;;;;5054345;28;20212;-60
2023/06/15 11:38:46;;;;;;;5.05;2.65;;;28.60;46.00;;;;;;5054044;28;20205;-62
2023/06/15 11:41:13;;;;;;;2.70;2.28;;;28.60;45.40;;;;;;5054307;28;20205;-62
2023/06/15 11:43:41;;;;;;;4.28;2.38;;;28.60;44.90;;;;;;5053824;28;20233;-62
2023/06/15 11:46:12;;;;;;;4.05;2.63;;;28.70;44.70;;;;;;5053635;28;20623;-60
2023/06/15 11:48:39;;;;;;;3.05;2.40;;;28.90;44.00;;;;;;5054173;28;20669;-61
2023/06/15 11:51:08;;;;;;;2.92;2.40;;;29.00;43.80;;;;;;5053727;28;20316;-60
2023/06/15 11:53:35;;;;;;;5.18;2.17;;;28.90;43.70;;;;;;5053705;28;20225;-60
2023/06/15 11:56:03;;;;;;;3.13;2.42;;;28.90;44.10;;;;;;5053446;28;20216;-60
2023/06/15 11:58:30;;;;;;;4.75;2.47;;;29.00;43.80;;;;;;5053816;28;20259;-60
2023/06/15 12:00:57;;;;;;;2.90;2.22;;;29.10;42.90;;;;;;5054171;28;20213;-60
2023/06/15 12:03:27;;;;;;;2.50;2.13;;;29.40;42.00;;;;;;5053676;28;20259;-59
2023/06/15 12:05:58;;;;;;;3.05;2.53;;;29.40;41.10;;;;;;5053422;28;20205;-60
2023/06/15 12:08:26;;;;;;;3.78;2.70;;;29.60;43.40;;;;;;5053421;28;20222;-60
2023/06/15 12:10:55;;;;;;;4.40;2.20;;;29.50;43.20;;;;;;5052664;28;20209;-61
2023/06/15 12:13:24;;;;;;;3.20;2.50;;;29.20;44.00;;;;;;5052114;28;20226;-59
2023/06/15 12:15:51;;;;;;;5.60;2.60;;;29.00;44.30;;;;;;5053228;28;20588;-59
2023/06/15 12:18:19;;;;;;;2.60;2.40;;;29.00;44.30;;;;;;5053888;28;20205;-60
2023/06/15 12:20:46;;;;;;;3.03;2.47;;;29.00;44.20;;;;;;5053863;28;20201;-59
2023/06/15 12:23:26;;;;;;;7.30;2.65;;;29.00;44.70;;;;;;5053177;28;20229;-59
2023/06/15 12:25:55;;;;;;;4.15;2.50;;;29.10;43.80;;;;;;5053315;28;20233;-59
2023/06/15 12:28:22;;;;;;;3.38;2.60;;;29.20;44.00;;;;;;5053468;28;20628;-60
2023/06/15 12:30:51;;;;;;;5.82;2.38;;;29.40;43.70;;;;;;5053915;28;20694;-60
2023/06/15 12:33:31;;;;;;;3.47;2.50;;;29.50;43.40;;;;;;5053331;28;20229;-60
2023/06/15 12:36:00;;;;;;;5.88;2.95;;;29.60;43.50;;;;;;5052753;28;20236;-60
2023/06/15 12:38:28;;;;;;;2.78;2.35;;;29.80;43.20;;;;;;5052852;28;20203;-58
2023/06/15 12:40:56;;;;;;;2.75;2.33;;;29.90;44.70;;;;;;5053314;28;20614;-59
2023/06/15 12:43:25;;;;;;;2.92;2.25;;;29.90;44.10;;;;;;5052873;28;20236;-59
2023/06/15 12:45:54;;;;;;;3.33;2.30;;;30.20;43.90;;;;;;5052584;28;20213;-59
2023/06/15 12:48:21;;;;;;;2.95;2.38;;;30.20;44.00;;;;;;5052340;28;20548;-59